VDPPVDSR

Guest
Details From VDPP - Phnom Penh Intl
To VDSR - Siem Reap
Flight Number -
Tags decoded
Created
Modified
Stats Distance 127 nm / 236 km
Max Altitude 0 ft / 0 m
Waypoints 2
Social Downloads 3
Likes 0
Share VATSIM

Download

Looking for another format? Having issues loading an existing format? Contact us
Advertisement - Login to hide

Notes

Requested: VDPP VDSR

Route

VDPP VDSR

ID Type Via Altitude Latitude Longitude Leg Dist Tot Dist Heading (true) Name
O VDPP APT - 0 ft / 0 m 11.54654˚ 104.84414˚ - 0 nm - Phnom Penh Intl
O VDSR APT - 0 ft / 0 m 13.41067˚ 103.81283˚ 127 nm 127 nm 332° / 332° Siem Reap

Altitude Profile

Advertisement - Login to hide

VDPP

Details ICAO VDPP (PNH)
Name Phnom Penh Intl
Region Cambodia
Timezone Asia/Phnom_Penh (UTC+7.0)
Stats Elevation 40 ft / 12 m (AMSL)
Location 11.546542° 104.844142°
Runways 1
Magnetic Variation 0.493° W

METAR

VDPP 131030Z 34004KT 310V010 9999 FEW017 31/20 Q1008

Decode

TAF

TAF VDPP 130500Z 1306/1324 03006KT 9999 SCT017= TAF VDSR 130500Z 1306/1324 05005KT 9999 SCT017

Decode

Departure Runways

ID Width Length Bearing (true) Bearing (mag) Surface Threshold Offset Overrun Length
05 144 ft / 44 m 9,815 ft / 2,992 m 45.61° 46.10° Asphalt 400 ft / 122 m 0 ft / 0 m
23 144 ft / 44 m 9,815 ft / 2,992 m 225.61° 226.10° Asphalt 492 ft / 150 m 0 ft / 0 m

VDSR

Details ICAO VDSR (REP)
Name Siem Reap
Region Cambodia
Timezone Asia/Phnom_Penh (UTC+7.0)
Stats Elevation 60 ft / 18 m (AMSL)
Location 13.410667° 103.812832°
Runways 1
Magnetic Variation 0.618° W

METAR

VDSR 131030Z 19004KT 9999 SCT017 30/20 Q1008

Decode

TAF

Not found

Destination Runways

ID Width Length Bearing (true) Bearing (mag) Surface Threshold Offset Overrun Length
05 148 ft / 45 m 8,384 ft / 2,555 m 47.81° 48.43° Concrete 450 ft / 137 m 0 ft / 0 m
23 148 ft / 45 m 8,384 ft / 2,555 m 227.82° 228.44° Concrete 450 ft / 137 m 0 ft / 0 m

Popular Alternatives